Sisters, Oregon
Current Conditions -  °F | °C
As of 1:56 AM on Wednesday 22 Oct 2014 (Local Time) from KRDM Reporting Station
Overcast Overcast  
Wind Chill: 45°   Ceiling: 9000
Heat Index: 47°   Visibility: 10mi
Dew Point: 37°   Wind: 5mph
Humidity: 68%   Direction: 170°S
Pressure: 29.94"   Gusts: NA
Location:  44.29°N, 121.55°W
Report Text: KRDM 220856Z AUTO 17004KT 10SM FEW070 OVC090 08/03 A2994 RMK AO2 SLP133 T00830028 56007
Loading
Personal Weather Stations






























Interactive Weather Map
Tropical Storm Tracking
New forecast layout! Learn more

10-Day Weather Forecast

Advertisements
Track Severe Weather on mobile